Time;durP1;ratioP1;P1;durP2;ratioP2;P2;SDS_P1;SDS_P2;PMS_P1;PMS_P2;Temp;Humidity;BMP_temperature;BMP_pressure;BME280_temperature;BME280_humidity;BME280_pressure;Samples;Min_cycle;Max_cycle;Signal;HPM_P1;HPM_P2
2022/10/13 00:00:18;;;;;;;;;;;4.80;99.90;;;;;;5090679;28;19998;-54
2022/10/13 00:02:43;;;;;;;;;;;4.80;99.90;;;;;;5090718;28;19903;-55
2022/10/13 00:05:09;;;;;;;;;;;4.80;99.90;;;;;;5090414;28;20385;-55
2022/10/13 00:07:34;;;;;;;;;;;4.80;99.90;;;;;;5090793;28;20262;-52
2022/10/13 00:10:00;;;;;;;;;;;4.60;99.90;;;;;;5090509;28;20463;-54
2022/10/13 00:12:25;;;;;;;;;;;4.60;99.90;;;;;;5090067;28;19911;-54
2022/10/13 00:14:51;;;;;;;;;;;4.70;99.90;;;;;;5090367;28;20434;-55
2022/10/13 00:17:16;;;;;;;;;;;4.70;99.90;;;;;;5089232;28;19908;-53
2022/10/13 00:19:42;;;;;;;;;;;4.70;99.90;;;;;;5090222;28;19911;-54
2022/10/13 00:22:07;;;;;;;;;;;4.70;99.90;;;;;;5090113;28;20002;-54
2022/10/13 00:24:33;;;;;;;;;;;4.70;99.90;;;;;;5090175;28;19938;-53
2022/10/13 00:26:58;;;;;;;;;;;4.60;99.90;;;;;;5089782;28;19920;-53
2022/10/13 00:29:24;;;;;;;;;;;4.60;99.90;;;;;;5090077;28;19907;-53
2022/10/13 00:31:49;;;;;;;;;;;4.70;99.90;;;;;;5090053;28;19904;-54
2022/10/13 00:34:15;;;;;;;;;;;4.60;99.90;;;;;;5089868;28;19908;-54
2022/10/13 00:36:40;;;;;;;;;;;4.70;99.90;;;;;;5089933;28;19904;-54
2022/10/13 00:39:07;;;;;;;;;;;4.60;99.90;;;;;;5090067;28;19908;-53
2022/10/13 00:41:32;;;;;;;;;;;4.70;99.90;;;;;;5089555;28;19911;-54
2022/10/13 00:44:02;;;;;;;;;;;4.80;99.90;;;;;;5089702;28;19911;-52
2022/10/13 00:46:29;;;;;;;;;;;4.90;99.90;;;;;;5089857;28;19916;-52
2022/10/13 00:48:57;;;;;;;;;;;4.90;99.90;;;;;;5089964;28;19931;-55
2022/10/13 00:51:25;;;;;;;;;;;4.90;99.90;;;;;;5089733;28;19912;-54
2022/10/13 00:53:51;;;;;;;;;;;4.90;99.90;;;;;;5088243;28;19999;-54
2022/10/13 00:56:18;;;;;;;;;;;4.80;99.90;;;;;;5088988;28;19940;-54
2022/10/13 00:58:45;;;;;;;;;;;4.90;99.90;;;;;;5089837;28;19904;-54
2022/10/13 01:01:11;;;;;;;;;;;4.80;99.90;;;;;;5089474;28;19911;-52
2022/10/13 01:03:36;;;;;;;;;;;4.70;99.90;;;;;;5089548;28;19904;-54
2022/10/13 01:06:02;;;;;;;;;;;4.60;99.90;;;;;;5089378;28;19946;-54
2022/10/13 01:08:28;;;;;;;;;;;4.60;99.90;;;;;;5089309;28;20351;-54
2022/10/13 01:10:57;;;;;;;;;;;4.50;99.90;;;;;;5089721;28;19908;-53
2022/10/13 01:13:33;;;;;;;;;;;4.40;99.90;;;;;;5089510;28;19995;-54
2022/10/13 01:16:04;;;;;;;;;;;4.40;99.90;;;;;;5089442;28;19911;-55
2022/10/13 01:18:30;;;;;;;;;;;4.50;99.90;;;;;;5089497;28;19930;-55
2022/10/13 01:21:00;;;;;;;;;;;4.50;99.90;;;;;;5089262;28;20355;-53
2022/10/13 01:23:44;;;;;;;;;;;4.50;99.90;;;;;;5089220;28;19904;-54
2022/10/13 01:26:22;;;;;;;;;;;4.60;99.90;;;;;;5089396;28;19919;-52
2022/10/13 01:28:57;;;;;;;;;;;4.50;99.90;;;;;;5092717;28;19992;-53
2022/10/13 01:31:29;;;;;;;;;;;4.50;99.90;;;;;;5093221;28;19908;-53
2022/10/13 01:33:58;;;;;;;;;;;4.40;99.90;;;;;;5093480;28;19907;-53
2022/10/13 01:36:33;;;;;;;;;;;4.40;99.90;;;;;;5093285;28;20325;-52
2022/10/13 01:39:01;;;;;;;;;;;4.50;99.90;;;;;;5093151;28;19904;-54
2022/10/13 01:41:27;;;;;;;;;;;4.30;99.90;;;;;;5093292;28;19943;-53
2022/10/13 01:43:56;;;;;;;;;;;4.30;99.90;;;;;;5093113;28;19985;-54
2022/10/13 01:46:25;;;;;;;;;;;4.30;99.90;;;;;;5092870;28;20360;-53
2022/10/13 01:48:52;;;;;;;;;;;4.30;99.90;;;;;;5093173;28;19904;-53
2022/10/13 01:51:18;;;;;;;;;;;4.40;99.90;;;;;;5092965;28;19908;-53
2022/10/13 01:53:44;;;;;;;;;;;4.40;99.90;;;;;;5093095;28;19904;-55
2022/10/13 01:56:10;;;;;;;;;;;4.50;99.90;;;;;;5092842;28;19915;-53
2022/10/13 01:58:37;;;;;;;;;;;4.50;99.90;;;;;;5091488;28;19908;-52
2022/10/13 02:01:17;;;;;;;;;;;4.50;99.90;;;;;;5093189;28;19994;-53
2022/10/13 02:04:05;;;;;;;;;;;4.40;99.90;;;;;;5092825;28;20298;-53
2022/10/13 02:06:34;;;;;;;;;;;4.40;99.90;;;;;;5086830;28;19919;-53
2022/10/13 02:09:06;;;;;;;;;;;4.40;99.90;;;;;;5092603;28;20015;-53
2022/10/13 02:11:32;;;;;;;;;;;4.40;99.90;;;;;;5092847;28;19904;-54
2022/10/13 02:14:00;;;;;;;;;;;4.30;99.90;;;;;;5092759;28;19915;-53
2022/10/13 02:16:32;;;;;;;;;;;4.30;99.90;;;;;;5092736;28;19908;-53
2022/10/13 02:18:58;;;;;;;;;;;4.30;99.90;;;;;;5092656;28;19908;-54
2022/10/13 02:21:24;;;;;;;;;;;4.30;99.90;;;;;;5092688;28;19914;-53
2022/10/13 02:23:49;;;;;;;;;;;4.20;99.90;;;;;;5091023;28;19908;-54
2022/10/13 02:26:15;;;;;;;;;;;4.00;99.90;;;;;;5092299;28;19961;-54
2022/10/13 02:28:41;;;;;;;;;;;4.00;99.90;;;;;;5112958;28;19916;-52
2022/10/13 02:31:07;;;;;;;;;;;4.10;99.90;;;;;;5112705;28;19911;-57
2022/10/13 02:33:33;;;;;;;;;;;4.10;99.90;;;;;;5112795;28;19918;-54
2022/10/13 02:35:58;;;;;;;;;;;4.00;99.90;;;;;;5112415;28;20002;-53
2022/10/13 02:38:24;;;;;;;;;;;4.10;99.90;;;;;;5112515;28;20015;-53
2022/10/13 02:40:49;;;;;;;;;;;4.00;99.90;;;;;;5111775;28;19904;-53
2022/10/13 02:43:15;;;;;;;;;;;4.10;99.90;;;;;;5112202;28;19908;-54
2022/10/13 02:45:41;;;;;;;;;;;4.00;99.90;;;;;;5111982;28;19956;-52
2022/10/13 02:48:06;;;;;;;;;;;4.00;99.90;;;;;;5112633;28;20002;-53
2022/10/13 02:50:32;;;;;;;;;;;4.00;99.90;;;;;;5099899;28;19912;-54
2022/10/13 02:52:57;;;;;;;;;;;4.00;99.90;;;;;;5091931;28;19908;-54
2022/10/13 02:55:23;;;;;;;;;;;3.90;99.90;;;;;;5091808;28;19904;-54
2022/10/13 02:57:48;;;;;;;;;;;3.80;99.90;;;;;;5091676;28;19911;-54
2022/10/13 03:00:15;;;;;;;;;;;3.80;99.90;;;;;;5091876;28;19936;-54
2022/10/13 03:02:41;;;;;;;;;;;3.80;99.90;;;;;;5091298;28;19949;-55
2022/10/13 03:05:06;;;;;;;;;;;3.70;99.90;;;;;;5091571;28;19920;-53
2022/10/13 03:07:32;;;;;;;;;;;3.60;99.90;;;;;;5091684;28;19908;-54
2022/10/13 03:09:57;;;;;;;;;;;3.60;99.90;;;;;;5091467;28;19915;-53
2022/10/13 03:12:23;;;;;;;;;;;3.70;99.90;;;;;;5091529;28;20343;-54
2022/10/13 03:14:48;;;;;;;;;;;3.70;99.90;;;;;;5091444;28;19912;-54
2022/10/13 03:17:14;;;;;;;;;;;3.70;99.90;;;;;;5091428;28;19908;-54
2022/10/13 03:19:40;;;;;;;;;;;3.70;99.90;;;;;;5091300;28;19911;-54
2022/10/13 03:22:05;;;;;;;;;;;3.70;99.90;;;;;;5091185;28;19936;-53
2022/10/13 03:24:31;;;;;;;;;;;3.80;99.90;;;;;;5091173;28;19908;-55
2022/10/13 03:26:56;;;;;;;;;;;3.80;99.90;;;;;;5090945;28;19923;-54
2022/10/13 03:29:22;;;;;;;;;;;3.90;99.90;;;;;;5091259;28;20022;-54
2022/10/13 03:31:47;;;;;;;;;;;4.00;99.90;;;;;;5091171;28;20311;-53
2022/10/13 03:34:14;;;;;;;;;;;4.00;99.90;;;;;;5091031;28;20324;-53
2022/10/13 03:36:40;;;;;;;;;;;4.10;99.90;;;;;;5090986;28;19998;-53
2022/10/13 03:39:05;;;;;;;;;;;4.10;99.90;;;;;;5090918;28;20042;-55
2022/10/13 03:41:31;;;;;;;;;;;4.00;99.90;;;;;;5091092;28;19980;-53
2022/10/13 03:43:56;;;;;;;;;;;4.00;99.90;;;;;;5090845;28;19982;-54
2022/10/13 03:46:23;;;;;;;;;;;4.00;99.90;;;;;;5090608;28;20324;-54
2022/10/13 03:48:48;;;;;;;;;;;3.90;99.90;;;;;;5089396;28;20394;-54
2022/10/13 03:51:18;;;;;;;;;;;3.90;99.90;;;;;;5089396;28;19942;-54
2022/10/13 03:53:44;;;;;;;;;;;3.90;99.90;;;;;;5090543;28;19908;-54
2022/10/13 03:56:13;;;;;;;;;;;3.90;99.90;;;;;;5090572;28;19915;-54
2022/10/13 03:58:38;;;;;;;;;;;3.90;99.90;;;;;;5090507;28;19915;-53
2022/10/13 04:01:04;;;;;;;;;;;4.00;99.90;;;;;;5072265;28;19904;-53
2022/10/13 04:03:29;;;;;;;;;;;4.00;99.90;;;;;;5090390;28;20833;-54
2022/10/13 04:05:58;;;;;;;;;;;4.10;99.90;;;;;;5090288;28;19964;-55
2022/10/13 04:08:23;;;;;;;;;;;4.10;99.90;;;;;;5090513;28;19981;-54
2022/10/13 04:10:57;;;;;;;;;;;4.00;99.90;;;;;;5090417;28;19946;-55
2022/10/13 04:13:22;;;;;;;;;;;4.00;99.90;;;;;;5090345;28;20656;-54
2022/10/13 04:15:48;;;;;;;;;;;4.00;99.90;;;;;;5090257;28;19908;-54
2022/10/13 04:18:13;;;;;;;;;;;4.00;99.90;;;;;;5090206;28;19915;-53
2022/10/13 04:20:39;;;;;;;;;;;4.00;99.90;;;;;;5090106;28;19951;-55
2022/10/13 04:23:05;;;;;;;;;;;4.00;99.90;;;;;;5090109;28;19911;-54
2022/10/13 04:25:33;;;;;;;;;;;3.90;99.90;;;;;;5071659;28;20601;-53
2022/10/13 04:27:58;;;;;;;;;;;3.90;99.90;;;;;;5089817;28;19916;-53
2022/10/13 04:30:24;;;;;;;;;;;4.00;99.90;;;;;;5090055;28;19954;-54
2022/10/13 04:32:49;;;;;;;;;;;3.90;99.90;;;;;;5089741;28;20363;-54
2022/10/13 04:35:15;;;;;;;;;;;3.90;99.90;;;;;;5089963;28;19908;-54
2022/10/13 04:37:40;;;;;;;;;;;3.80;99.90;;;;;;5089907;28;19970;-54
2022/10/13 04:40:06;;;;;;;;;;;3.80;99.90;;;;;;5089861;28;19915;-55
2022/10/13 04:42:32;;;;;;;;;;;3.70;99.90;;;;;;5089730;28;20286;-54
2022/10/13 04:44:58;;;;;;;;;;;3.60;99.90;;;;;;5089656;28;19915;-55
2022/10/13 04:47:24;;;;;;;;;;;3.70;99.90;;;;;;5089729;28;19953;-54
2022/10/13 04:49:49;;;;;;;;;;;3.70;99.90;;;;;;5089630;28;19927;-53
2022/10/13 04:52:15;;;;;;;;;;;3.70;99.90;;;;;;5089683;28;20003;-53
2022/10/13 04:54:41;;;;;;;;;;;3.60;99.90;;;;;;5089598;28;19907;-52
2022/10/13 04:57:06;;;;;;;;;;;3.70;99.90;;;;;;5089586;28;19908;-54
2022/10/13 04:59:32;;;;;;;;;;;3.70;99.90;;;;;;5089637;28;20317;-53
2022/10/13 05:01:57;;;;;;;;;;;3.60;99.90;;;;;;5088964;28;20049;-54
2022/10/13 05:04:23;;;;;;;;;;;3.50;99.90;;;;;;5089774;28;20419;-53
2022/10/13 05:06:48;;;;;;;;;;;3.60;99.90;;;;;;5089170;28;20615;-54
2022/10/13 05:09:15;;;;;;;;;;;3.60;99.90;;;;;;5089058;28;19908;-53
2022/10/13 05:11:40;;;;;;;;;;;3.60;99.90;;;;;;5089118;28;20210;-54
2022/10/13 05:14:06;;;;;;;;;;;3.60;99.90;;;;;;5089193;28;19912;-53
2022/10/13 05:16:32;;;;;;;;;;;3.60;99.90;;;;;;5089312;28;19905;-53
2022/10/13 05:18:57;;;;;;;;;;;3.60;99.90;;;;;;5089205;28;19907;-53
2022/10/13 05:21:24;;;;;;;;;;;3.70;99.90;;;;;;5089389;28;19912;-53
2022/10/13 05:23:54;;;;;;;;;;;3.60;99.90;;;;;;5089354;28;19927;-54
2022/10/13 05:26:21;;;;;;;;;;;3.70;99.90;;;;;;5088305;28;20054;-53
2022/10/13 05:28:47;;;;;;;;;;;3.70;99.90;;;;;;5109749;28;19904;-53
2022/10/13 05:31:14;;;;;;;;;;;3.60;99.90;;;;;;5109616;28;19934;-54
2022/10/13 05:33:40;;;;;;;;;;;3.60;99.90;;;;;;5109737;28;19903;-53
2022/10/13 05:36:11;;;;;;;;;;;3.60;99.90;;;;;;5109698;28;19904;-52
2022/10/13 05:38:37;;;;;;;;;;;3.70;99.90;;;;;;5091150;28;19903;-55
2022/10/13 05:41:07;;;;;;;;;;;3.60;99.90;;;;;;5109590;28;19933;-54
2022/10/13 05:43:33;;;;;;;;;;;3.70;99.90;;;;;;5109268;28;20673;-54
2022/10/13 05:45:59;;;;;;;;;;;3.80;99.90;;;;;;5109472;28;19911;-54
2022/10/13 05:48:24;;;;;;;;;;;3.90;99.90;;;;;;5109752;28;19935;-55
2022/10/13 05:50:50;;;;;;;;;;;4.00;99.90;;;;;;5078450;28;19904;-53
2022/10/13 05:53:15;;;;;;;;;;;4.00;99.90;;;;;;5089108;28;19915;-54
2022/10/13 05:55:41;;;;;;;;;;;4.10;99.90;;;;;;5089279;28;19908;-54
2022/10/13 05:58:07;;;;;;;;;;;4.20;99.90;;;;;;5088955;28;20431;-54
2022/10/13 06:00:32;;;;;;;;;;;4.20;99.90;;;;;;5089160;28;19915;-54
2022/10/13 06:03:10;;;;;;;;;;;4.40;99.90;;;;;;5088956;28;20375;-54
2022/10/13 06:05:35;;;;;;;;;;;4.40;99.90;;;;;;5088278;28;19916;-54
2022/10/13 06:08:01;;;;;;;;;;;4.50;99.90;;;;;;5070438;28;20445;-52
2022/10/13 06:10:26;;;;;;;;;;;4.60;99.90;;;;;;5088515;28;19904;-53
2022/10/13 06:12:53;;;;;;;;;;;4.70;99.90;;;;;;5075945;28;19918;-54
2022/10/13 06:15:18;;;;;;;;;;;4.70;99.90;;;;;;5090506;28;19979;-52
2022/10/13 06:17:44;;;;;;;;;;;4.80;99.90;;;;;;5091260;28;20389;-53
2022/10/13 06:20:10;;;;;;;;;;;4.80;99.90;;;;;;5091705;28;19904;-52
2022/10/13 06:22:36;;;;;;;;;;;4.90;99.90;;;;;;5091032;28;19912;-53
2022/10/13 06:25:02;;;;;;;;;;;5.00;99.90;;;;;;5091101;28;19916;-53
2022/10/13 06:27:28;;;;;;;;;;;5.10;99.90;;;;;;5096164;28;20519;-53
2022/10/13 06:29:53;;;;;;;;;;;5.20;99.90;;;;;;5082060;28;19916;-53
2022/10/13 06:32:19;;;;;;;;;;;5.30;99.90;;;;;;5101056;28;20010;-53
2022/10/13 06:34:44;;;;;;;;;;;5.30;99.90;;;;;;5101769;28;20373;-53
2022/10/13 06:37:10;;;;;;;;;;;5.40;99.90;;;;;;5112182;28;20358;-53
2022/10/13 06:39:35;;;;;;;;;;;5.50;99.90;;;;;;5112384;28;19915;-53
2022/10/13 06:42:01;;;;;;;;;;;5.60;99.90;;;;;;5112193;28;19904;-53
2022/10/13 06:44:26;;;;;;;;;;;5.70;99.90;;;;;;5112191;28;20502;-54
2022/10/13 06:46:52;;;;;;;;;;;5.80;99.90;;;;;;5112496;28;19932;-52
2022/10/13 06:49:18;;;;;;;;;;;5.90;99.90;;;;;;5112328;28;20045;-53
2022/10/13 06:51:43;;;;;;;;;;;6.00;99.90;;;;;;5094422;28;20272;-53
2022/10/13 06:54:09;;;;;;;;;;;6.10;99.90;;;;;;5090815;28;20371;-52
2022/10/13 06:56:34;;;;;;;;;;;6.30;99.90;;;;;;5091497;28;20419;-53
2022/10/13 06:59:00;;;;;;;;;;;6.40;99.90;;;;;;5090853;28;19908;-53
2022/10/13 07:01:25;;;;;;;;;;;6.60;99.90;;;;;;5071616;28;19915;-52
2022/10/13 07:03:51;;;;;;;;;;;6.70;99.90;;;;;;5089373;28;19911;-54
2022/10/13 07:06:17;;;;;;;;;;;6.90;99.90;;;;;;5089721;28;19919;-54
2022/10/13 07:08:42;;;;;;;;;;;7.00;99.90;;;;;;5089776;28;19908;-54
2022/10/13 07:11:09;;;;;;;;;;;7.30;99.90;;;;;;5089899;28;19908;-54
2022/10/13 07:13:34;;;;;;;;;;;7.40;99.90;;;;;;5089967;28;19911;-54
2022/10/13 07:16:03;;;;;;;;;;;7.50;99.90;;;;;;5091740;28;19911;-54
2022/10/13 07:18:29;;;;;;;;;;;7.70;99.90;;;;;;5091241;28;19919;-53
2022/10/13 07:20:56;;;;;;;;;;;7.80;99.90;;;;;;5091293;28;19904;-53
2022/10/13 07:23:21;;;;;;;;;;;8.00;99.90;;;;;;5091302;28;19908;-55
2022/10/13 07:25:47;;;;;;;;;;;8.10;99.90;;;;;;5091945;28;20511;-52
2022/10/13 07:28:12;;;;;;;;;;;8.40;99.90;;;;;;5100811;28;19930;-53
2022/10/13 07:30:38;;;;;;;;;;;8.60;99.90;;;;;;5094576;28;19994;-54
2022/10/13 07:33:04;;;;;;;;;;;8.70;99.90;;;;;;5092258;28;20359;-53
2022/10/13 07:35:29;;;;;;;;;;;9.20;99.90;;;;;;5097314;28;20430;-54
2022/10/13 07:37:55;;;;;;;;;;;9.20;99.90;;;;;;5089760;28;19962;-54
2022/10/13 07:40:21;;;;;;;;;;;9.40;99.90;;;;;;5090164;28;19908;-52
2022/10/13 07:42:46;;;;;;;;;;;9.90;99.90;;;;;;5089670;28;19904;-53
2022/10/13 07:45:12;;;;;;;;;;;10.40;99.90;;;;;;5089631;28;19915;-55
2022/10/13 07:47:37;;;;;;;;;;;10.10;99.90;;;;;;5089892;28;20511;-53
2022/10/13 07:50:03;;;;;;;;;;;10.30;99.90;;;;;;5089693;28;20319;-53
2022/10/13 07:52:29;;;;;;;;;;;10.90;99.90;;;;;;5090740;28;19991;-54
2022/10/13 07:54:54;;;;;;;;;;;11.80;99.90;;;;;;5089880;28;19923;-54
2022/10/13 07:57:20;;;;;;;;;;;11.80;99.90;;;;;;5089684;28;19917;-54
2022/10/13 07:59:46;;;;;;;;;;;11.50;99.90;;;;;;5097700;28;19912;-53
2022/10/13 08:02:12;;;;;;;;;;;11.40;99.90;;;;;;5100047;28;19908;-53
2022/10/13 08:04:38;;;;;;;;;;;11.20;99.90;;;;;;5098397;28;20366;-56
2022/10/13 08:07:04;;;;;;;;;;;11.40;99.90;;;;;;5100069;28;19918;-58
2022/10/13 08:09:30;;;;;;;;;;;11.40;99.90;;;;;;5099794;28;20735;-52
2022/10/13 08:11:55;;;;;;;;;;;11.70;99.90;;;;;;5098341;28;19920;-54
2022/10/13 08:14:21;;;;;;;;;;;12.30;99.90;;;;;;5092201;28;19912;-53
2022/10/13 08:16:47;;;;;;;;;;;13.30;99.90;;;;;;5089791;28;19911;-53
2022/10/13 08:19:16;;;;;;;;;;;13.40;99.90;;;;;;5089764;28;19912;-54
2022/10/13 08:21:41;;;;;;;;;;;13.90;99.90;;;;;;5090036;28;19908;-52
2022/10/13 08:24:11;;;;;;;;;;;13.40;99.90;;;;;;5098758;28;19911;-52
2022/10/13 08:26:37;;;;;;;;;;;13.30;99.90;;;;;;5098767;28;19920;-54
2022/10/13 08:29:02;;;;;;;;;;;13.80;99.90;;;;;;5100659;28;19907;-54
2022/10/13 08:31:28;;;;;;;;;;;14.00;99.90;;;;;;5098460;28;19915;-53
2022/10/13 08:33:53;;;;;;;;;;;13.80;99.90;;;;;;5081044;28;19908;-53
2022/10/13 08:36:19;;;;;;;;;;;14.20;99.90;;;;;;5097838;28;19907;-52
2022/10/13 08:38:44;;;;;;;;;;;15.00;99.90;;;;;;5099516;28;19912;-53
2022/10/13 08:41:18;;;;;;;;;;;15.10;99.90;;;;;;5098757;28;19912;-53
2022/10/13 08:43:48;;;;;;;;;;;15.00;99.90;;;;;;5092275;28;19919;-53
2022/10/13 08:46:17;;;;;;;;;;;16.20;99.90;;;;;;5089724;28;19951;-53
2022/10/13 08:48:43;;;;;;;;;;;15.30;99.90;;;;;;5090103;28;19944;-54
2022/10/13 08:51:11;;;;;;;;;;;15.80;99.90;;;;;;5089637;28;20001;-54
2022/10/13 08:53:39;;;;;;;;;;;17.40;99.90;;;;;;5089762;28;19908;-53
2022/10/13 08:56:18;;;;;;;;;;;16.40;99.90;;;;;;5089758;28;19998;-53
2022/10/13 08:58:43;;;;;;;;;;;16.60;99.90;;;;;;5089561;28;19912;-53
2022/10/13 09:01:11;;;;;;;;;;;18.20;99.60;;;;;;5089594;28;19908;-54
2022/10/13 09:03:42;;;;;;;;;;;17.30;98.80;;;;;;5089948;28;19936;-53
2022/10/13 09:06:12;;;;;;;;;;;18.00;96.40;;;;;;5089538;28;19920;-53
2022/10/13 09:08:50;;;;;;;;;;;18.90;93.90;;;;;;5089645;28;19904;-53
2022/10/13 09:11:15;;;;;;;;;;;17.50;93.30;;;;;;5088934;28;19928;-54
2022/10/13 09:13:41;;;;;;;;;;;17.40;96.70;;;;;;5089348;28;19908;-53
2022/10/13 09:16:07;;;;;;;;;;;17.90;98.40;;;;;;5086670;28;20351;-53
2022/10/13 09:18:33;;;;;;;;;;;17.40;96.80;;;;;;5086693;28;19932;-53
2022/10/13 09:21:10;;;;;;;;;;;18.30;94.70;;;;;;5087572;28;19930;-53
2022/10/13 09:23:36;;;;;;;;;;;18.00;93.90;;;;;;5089390;28;19914;-53
2022/10/13 09:26:06;;;;;;;;;;;17.60;95.50;;;;;;5089315;28;19912;-53
2022/10/13 09:28:31;;;;;;;;;;;18.10;94.30;;;;;;5088397;28;20387;-53
2022/10/13 09:31:16;;;;;;;;;;;17.70;97.30;;;;;;5090269;28;19919;-53
2022/10/13 09:33:41;;;;;;;;;;;19.20;93.00;;;;;;5096969;28;19915;-53
2022/10/13 09:36:16;;;;;;;;;;;19.70;92.60;;;;;;5097544;28;19907;-53
2022/10/13 09:38:43;;;;;;;;;;;19.60;92.40;;;;;;5096767;28;19995;-53
2022/10/13 09:41:08;;;;;;;;;;;18.60;92.40;;;;;;5096857;28;19919;-53
2022/10/13 09:43:40;;;;;;;;;;;17.80;93.80;;;;;;5097976;28;19904;-54
2022/10/13 09:46:24;;;;;;;;;;;17.70;96.00;;;;;;5093247;28;19927;-52
2022/10/13 09:48:52;;;;;;;;;;;19.20;92.80;;;;;;5086192;28;20291;-53
2022/10/13 09:51:31;;;;;;;;;;;19.80;93.30;;;;;;5092675;28;19955;-53
2022/10/13 09:53:56;;;;;;;;;;;20.60;88.50;;;;;;5093010;28;19911;-53
2022/10/13 09:56:24;;;;;;;;;;;19.70;89.40;;;;;;5092601;28;19910;-53
2022/10/13 09:58:49;;;;;;;;;;;20.40;85.00;;;;;;5092483;28;19904;-54
2022/10/13 10:01:19;;;;;;;;;;;20.00;88.90;;;;;;5092257;28;19938;-53
2022/10/13 10:03:45;;;;;;;;;;;21.50;89.10;;;;;;5092773;28;19915;-53
2022/10/13 10:06:13;;;;;;;;;;;21.70;85.40;;;;;;5100542;28;19920;-53
2022/10/13 10:08:45;;;;;;;;;;;22.00;79.10;;;;;;5107231;28;19912;-53
2022/10/13 10:11:12;;;;;;;;;;;22.40;81.90;;;;;;5111164;28;19911;-53
2022/10/13 10:13:38;;;;;;;;;;;21.80;79.20;;;;;;5112957;28;19908;-51
2022/10/13 10:16:10;;;;;;;;;;;20.30;83.20;;;;;;5102500;28;20469;-54
2022/10/13 10:18:54;;;;;;;;;;;21.00;81.50;;;;;;5093972;28;19912;-53
2022/10/13 10:21:28;;;;;;;;;;;21.50;77.90;;;;;;5090347;28;20371;-53
2022/10/13 10:24:06;;;;;;;;;;;22.10;77.00;;;;;;5089689;28;19912;-53
2022/10/13 10:26:34;;;;;;;;;;;20.50;78.50;;;;;;5088969;28;19957;-54
2022/10/13 10:29:00;;;;;;;;;;;21.80;79.60;;;;;;5091963;28;19912;-50
2022/10/13 10:31:31;;;;;;;;;;;22.50;78.30;;;;;;5091728;28;20003;-53
2022/10/13 10:34:03;;;;;;;;;;;22.50;78.10;;;;;;5096670;28;19908;-52
2022/10/13 10:36:51;;;;;;;;;;;22.70;72.70;;;;;;5096380;28;19908;-51
2022/10/13 10:39:29;;;;;;;;;;;22.10;73.60;;;;;;5090721;28;19914;-53
2022/10/13 10:42:03;;;;;;;;;;;21.70;76.50;;;;;;5092183;28;19994;-52
2022/10/13 10:44:31;;;;;;;;;;;21.90;76.60;;;;;;5097155;28;19965;-54
2022/10/13 10:47:01;;;;;;;;;;;21.90;78.50;;;;;;5091917;28;19912;-54
2022/10/13 10:49:27;;;;;;;;;;;22.30;75.40;;;;;;5092051;28;20637;-54
2022/10/13 10:51:53;;;;;;;;;;;22.00;74.50;;;;;;5091975;28;19982;-51
2022/10/13 10:54:41;;;;;;;;;;;22.60;68.90;;;;;;5092069;28;20007;-51
2022/10/13 10:57:20;;;;;;;;;;;22.40;65.90;;;;;;5092097;28;19915;-53
2022/10/13 11:00:00;;;;;;;;;;;20.70;67.20;;;;;;5092548;28;19915;-51
2022/10/13 11:02:35;;;;;;;;;;;20.30;71.30;;;;;;5098933;28;19911;-51
2022/10/13 11:05:00;;;;;;;;;;;20.20;73.00;;;;;;5097066;28;20352;-53
2022/10/13 11:07:26;;;;;;;;;;;21.10;74.80;;;;;;5093864;28;19914;-51
2022/10/13 11:09:52;;;;;;;;;;;21.50;69.60;;;;;;5091409;28;19912;-51
2022/10/13 11:12:18;;;;;;;;;;;21.90;70.20;;;;;;5090962;28;20007;-52
2022/10/13 11:14:52;;;;;;;;;;;21.70;71.50;;;;;;5090453;28;19994;-52
2022/10/13 11:17:38;;;;;;;;;;;21.40;69.10;;;;;;5090803;28;19919;-51
2022/10/13 11:20:19;;;;;;;;;;;21.40;68.90;;;;;;5090543;28;19912;-52
2022/10/13 11:22:56;;;;;;;;;;;21.00;70.40;;;;;;5090299;28;19911;-51
2022/10/13 11:25:34;;;;;;;;;;;20.50;71.30;;;;;;5099133;28;20014;-51
2022/10/13 11:28:20;;;;;;;;;;;19.30;72.40;;;;;;5096744;28;19915;-51
2022/10/13 11:30:48;;;;;;;;;;;19.40;73.60;;;;;;5094804;28;19941;-52
2022/10/13 11:33:33;;;;;;;;;;;19.20;76.40;;;;;;5090617;28;19938;-52
2022/10/13 11:36:17;;;;;;;;;;;19.10;77.50;;;;;;5088678;28;19961;-53
2022/10/13 11:38:45;;;;;;;;;;;18.90;79.80;;;;;;5093786;28;19911;-52
2022/10/13 11:41:19;;;;;;;;;;;18.90;81.10;;;;;;5101342;28;19918;-53
2022/10/13 11:43:47;;;;;;;;;;;18.80;82.20;;;;;;5098913;28;19996;-51
2022/10/13 11:46:18;;;;;;;;;;;18.50;83.90;;;;;;5099610;28;19915;-52
2022/10/13 11:48:59;;;;;;;;;;;18.60;84.80;;;;;;5101086;28;19907;-52
2022/10/13 11:51:25;;;;;;;;;;;18.80;86.10;;;;;;5100701;28;19915;-53
2022/10/13 11:53:58;;;;;;;;;;;18.90;85.30;;;;;;5099196;28;19908;-52
2022/10/13 11:56:44;;;;;;;;;;;18.90;84.00;;;;;;5098425;28;19915;-52
2022/10/13 11:59:29;;;;;;;;;;;18.50;85.40;;;;;;5094524;28;19908;-52
2022/10/13 12:02:04;;;;;;;;;;;18.20;84.20;;;;;;5091429;28;19904;-53
2022/10/13 12:04:29;;;;;;;;;;;18.30;85.70;;;;;;5090369;28;19907;-54
2022/10/13 12:06:58;;;;;;;;;;;18.10;87.30;;;;;;5089668;28;19965;-53
2022/10/13 12:09:23;;;;;;;;;;;18.10;87.60;;;;;;5090128;28;19927;-52
2022/10/13 12:11:56;;;;;;;;;;;18.40;86.80;;;;;;5088986;28;19912;-52
2022/10/13 12:14:29;;;;;;;;;;;18.50;86.40;;;;;;5092444;28;20359;-53
2022/10/13 12:16:57;;;;;;;;;;;18.70;87.20;;;;;;5100438;28;20348;-51
2022/10/13 12:19:24;;;;;;;;;;;18.80;86.00;;;;;;5097544;28;19951;-54
2022/10/13 12:21:50;;;;;;;;;;;18.80;86.10;;;;;;5100287;28;19911;-54
2022/10/13 12:24:16;;;;;;;;;;;18.60;87.70;;;;;;5106845;28;19914;-54
2022/10/13 12:26:42;;;;;;;;;;;18.70;86.90;;;;;;5109874;28;19915;-51
2022/10/13 12:29:10;;;;;;;;;;;18.70;88.30;;;;;;5110178;28;19908;-51
2022/10/13 12:31:43;;;;;;;;;;;18.60;88.30;;;;;;5109743;28;19916;-52
2022/10/13 12:34:17;;;;;;;;;;;18.90;89.80;;;;;;5110199;28;19998;-53
2022/10/13 12:36:43;;;;;;;;;;;18.80;90.10;;;;;;5110115;28;19914;-51
2022/10/13 12:39:11;;;;;;;;;;;18.20;90.10;;;;;;5109791;28;20367;-53
2022/10/13 12:41:41;;;;;;;;;;;18.30;90.40;;;;;;5109805;28;20321;-53
2022/10/13 12:44:08;;;;;;;;;;;18.40;90.40;;;;;;5109315;28;19947;-54
2022/10/13 12:46:35;;;;;;;;;;;18.50;91.20;;;;;;5109018;28;19920;-54
2022/10/13 12:49:12;;;;;;;;;;;18.60;90.50;;;;;;5100531;28;19966;-53
2022/10/13 12:51:38;;;;;;;;;;;18.70;90.80;;;;;;5098859;28;20010;-54
2022/10/13 12:54:26;;;;;;;;;;;18.90;90.70;;;;;;5106403;28;20006;-54
2022/10/13 12:56:53;;;;;;;;;;;18.90;90.50;;;;;;5098168;28;20014;-52
2022/10/13 12:59:19;;;;;;;;;;;18.80;90.50;;;;;;5109507;28;20348;-52
2022/10/13 13:01:51;;;;;;;;;;;18.90;90.00;;;;;;5093734;28;19915;-53
2022/10/13 13:04:25;;;;;;;;;;;18.80;90.60;;;;;;5173450;22;19920;-94
2022/10/13 13:06:54;;;;;;;;;;;18.80;90.40;;;;;;5126808;28;19912;-96
2022/10/13 13:09:42;;;;;;;;;;;18.90;90.20;;;;;;5101177;28;19993;-95
2022/10/13 13:12:11;;;;;;;;;;;19.00;89.70;;;;;;5109422;28;19935;-92
2022/10/13 13:14:46;;;;;;;;;;;19.00;90.10;;;;;;5106385;28;19942;-95
2022/10/13 13:17:13;;;;;;;;;;;18.80;90.30;;;;;;5125175;28;19931;-95
2022/10/13 13:19:46;;;;;;;;;;;18.60;90.80;;;;;;5106663;28;19914;-95
2022/10/13 13:22:13;;;;;;;;;;;18.60;91.00;;;;;;5107378;28;19904;-94
2022/10/13 13:24:39;;;;;;;;;;;18.90;90.70;;;;;;5128462;28;19965;-95
2022/10/13 13:27:24;;;;;;;;;;;19.00;91.30;;;;;;5106301;28;19912;-94
2022/10/13 13:29:50;;;;;;;;;;;19.10;90.40;;;;;;5107046;28;19907;-93
2022/10/13 13:32:17;;;;;;;;;;;18.90;90.40;;;;;;5079376;22;20650;-52
2022/10/13 13:34:43;;;;;;;;;;;18.90;90.70;;;;;;5072825;28;19911;-52
2022/10/13 13:37:26;;;;;;;;;;;18.70;91.10;;;;;;5072959;28;19908;-53
2022/10/13 13:39:52;;;;;;;;;;;18.80;91.20;;;;;;5073269;28;19927;-53
2022/10/13 13:42:18;;;;;;;;;;;18.90;91.00;;;;;;5073134;28;20343;-53
2022/10/13 13:44:43;;;;;;;;;;;18.80;91.30;;;;;;5073118;28;20000;-52
2022/10/13 13:47:35;;;;;;;;;;;18.70;91.40;;;;;;5073032;28;19913;-53
2022/10/13 13:50:02;;;;;;;;;;;18.70;91.70;;;;;;5070688;28;19912;-53
2022/10/13 13:52:27;;;;;;;;;;;18.70;92.20;;;;;;5072847;28;19908;-53
2022/10/13 13:54:54;;;;;;;;;;;18.80;91.50;;;;;;5072806;28;19919;-53
2022/10/13 13:57:20;;;;;;;;;;;18.60;91.70;;;;;;5072680;28;19908;-53
2022/10/13 13:59:46;;;;;;;;;;;18.70;92.10;;;;;;5073166;28;19915;-53
2022/10/13 14:02:14;;;;;;;;;;;18.90;92.30;;;;;;5072606;28;20390;-51
2022/10/13 14:04:39;;;;;;;;;;;19.00;91.90;;;;;;5072722;28;19904;-53
2022/10/13 14:07:05;;;;;;;;;;;18.80;91.00;;;;;;5072848;28;19923;-55
2022/10/13 14:09:30;;;;;;;;;;;18.50;92.10;;;;;;5072713;28;19904;-56
2022/10/13 14:11:56;;;;;;;;;;;18.40;92.20;;;;;;5071182;28;19920;-53
2022/10/13 14:14:21;;;;;;;;;;;18.30;92.80;;;;;;5072172;28;20271;-53
2022/10/13 14:16:47;;;;;;;;;;;18.10;93.00;;;;;;5072066;28;19916;-52
2022/10/13 14:19:12;;;;;;;;;;;17.90;93.80;;;;;;5072012;28;19978;-53
2022/10/13 14:21:38;;;;;;;;;;;17.70;94.80;;;;;;5072485;28;20374;-53
2022/10/13 14:24:04;;;;;;;;;;;17.60;94.80;;;;;;5071473;28;19908;-53
2022/10/13 14:26:29;;;;;;;;;;;17.60;95.70;;;;;;5070442;28;19957;-53
2022/10/13 14:28:56;;;;;;;;;;;17.60;96.50;;;;;;5070713;28;19931;-53